sensor_id;sensor_type;location;lat;lon;timestamp;P1;durP1;ratioP1;P2;durP2;ratioP2
18917;SDS011;9591;52.742;13.650;2022-11-30T17:36:26;91.07;;;24.67;;
18917;SDS011;9591;52.742;13.650;2022-11-30T17:39:13;95.70;;;23.70;;
18917;SDS011;9591;52.742;13.650;2022-11-30T17:42:00;82.20;;;24.90;;
18917;SDS011;9591;52.742;13.650;2022-11-30T17:44:47;98.40;;;23.37;;
18917;SDS011;9591;52.742;13.650;2022-11-30T17:47:34;99.13;;;26.17;;
18917;SDS011;9591;52.742;13.650;2022-11-30T17:50:21;95.17;;;23.37;;
18917;SDS011;9591;52.742;13.650;2022-11-30T17:53:10;100.43;;;24.37;;
18917;SDS011;9591;52.742;13.650;2022-11-30T17:56:02;88.27;;;22.27;;
18917;SDS011;9591;52.742;13.650;2022-11-30T17:58:50;89.07;;;24.27;;
18917;SDS011;9591;52.742;13.650;2022-11-30T18:01:36;96.13;;;25.67;;
18917;SDS011;9591;52.742;13.650;2022-11-30T18:04:24;95.53;;;23.97;;
18917;SDS011;9591;52.742;13.650;2022-11-30T18:07:11;100.10;;;25.33;;
18917;SDS011;9591;52.742;13.650;2022-11-30T18:09:59;107.17;;;27.50;;
18917;SDS011;9591;52.742;13.650;2022-11-30T18:12:46;107.37;;;26.63;;
18917;SDS011;9591;52.742;13.650;2022-11-30T18:15:32;92.57;;;26.23;;
18917;SDS011;9591;52.742;13.650;2022-11-30T18:18:19;93.73;;;26.23;;
18917;SDS011;9591;52.742;13.650;2022-11-30T18:21:07;91.93;;;28.83;;
18917;SDS011;9591;52.742;13.650;2022-11-30T18:23:56;109.10;;;26.90;;
18917;SDS011;9591;52.742;13.650;2022-11-30T18:26:44;108.50;;;25.47;;
18917;SDS011;9591;52.742;13.650;2022-11-30T18:29:31;94.63;;;24.30;;
18917;SDS011;9591;52.742;13.650;2022-11-30T18:32:18;103.83;;;26.03;;
18917;SDS011;9591;52.742;13.650;2022-11-30T18:35:05;96.17;;;26.27;;
18917;SDS011;9591;52.742;13.650;2022-11-30T18:37:52;97.83;;;25.67;;
18917;SDS011;9591;52.742;13.650;2022-11-30T18:40:39;86.77;;;24.03;;
18917;SDS011;9591;52.742;13.650;2022-11-30T18:43:27;99.33;;;28.33;;
18917;SDS011;9591;52.742;13.650;2022-11-30T18:46:14;91.97;;;25.43;;
18917;SDS011;9591;52.742;13.650;2022-11-30T18:49:01;85.93;;;24.23;;
18917;SDS011;9591;52.742;13.650;2022-11-30T18:51:48;103.60;;;26.50;;
18917;SDS011;9591;52.742;13.650;2022-11-30T18:54:34;87.30;;;25.80;;
18917;SDS011;9591;52.742;13.650;2022-11-30T18:57:21;97.07;;;26.40;;
18917;SDS011;9591;52.742;13.650;2022-11-30T19:00:10;106.13;;;27.03;;
18917;SDS011;9591;52.742;13.650;2022-11-30T19:02:57;93.97;;;23.83;;
18917;SDS011;9591;52.742;13.650;2022-11-30T19:05:44;101.70;;;27.53;;
18917;SDS011;9591;52.742;13.650;2022-11-30T19:08:31;86.20;;;23.97;;
18917;SDS011;9591;52.742;13.650;2022-11-30T19:11:17;99.20;;;23.13;;
18917;SDS011;9591;52.742;13.650;2022-11-30T19:14:04;83.10;;;24.07;;
18917;SDS011;9591;52.742;13.650;2022-11-30T19:16:53;103.30;;;28.03;;
18917;SDS011;9591;52.742;13.650;2022-11-30T19:19:40;98.73;;;26.70;;
18917;SDS011;9591;52.742;13.650;2022-11-30T19:22:27;97.70;;;25.63;;
18917;SDS011;9591;52.742;13.650;2022-11-30T19:25:15;109.23;;;26.23;;
18917;SDS011;9591;52.742;13.650;2022-11-30T19:28:03;93.40;;;25.17;;
18917;SDS011;9591;52.742;13.650;2022-11-30T19:30:50;95.47;;;27.03;;
18917;SDS011;9591;52.742;13.650;2022-11-30T19:33:39;104.67;;;27.80;;
18917;SDS011;9591;52.742;13.650;2022-11-30T19:36:27;91.43;;;26.07;;
18917;SDS011;9591;52.742;13.650;2022-11-30T19:39:16;85.33;;;25.07;;
18917;SDS011;9591;52.742;13.650;2022-11-30T19:42:04;85.60;;;27.07;;
18917;SDS011;9591;52.742;13.650;2022-11-30T19:44:52;85.63;;;23.37;;
18917;SDS011;9591;52.742;13.650;2022-11-30T19:47:43;86.80;;;23.77;;
18917;SDS011;9591;52.742;13.650;2022-11-30T19:50:31;82.73;;;22.80;;
18917;SDS011;9591;52.742;13.650;2022-11-30T19:53:19;82.03;;;22.87;;
18917;SDS011;9591;52.742;13.650;2022-11-30T19:56:06;80.03;;;23.17;;
18917;SDS011;9591;52.742;13.650;2022-11-30T19:58:56;84.43;;;22.03;;
18917;SDS011;9591;52.742;13.650;2022-11-30T20:01:49;79.23;;;22.90;;
18917;SDS011;9591;52.742;13.650;2022-11-30T20:04:36;80.27;;;22.03;;
18917;SDS011;9591;52.742;13.650;2022-11-30T20:07:24;69.93;;;21.53;;
18917;SDS011;9591;52.742;13.650;2022-11-30T20:10:11;75.37;;;21.37;;
18917;SDS011;9591;52.742;13.650;2022-11-30T20:12:58;86.37;;;24.57;;
18917;SDS011;9591;52.742;13.650;2022-11-30T20:15:45;84.93;;;21.10;;
18917;SDS011;9591;52.742;13.650;2022-11-30T20:18:36;84.77;;;24.10;;
18917;SDS011;9591;52.742;13.650;2022-11-30T20:21:30;92.20;;;23.87;;
18917;SDS011;9591;52.742;13.650;2022-11-30T20:24:20;80.33;;;23.13;;
18917;SDS011;9591;52.742;13.650;2022-11-30T20:27:07;77.37;;;21.70;;
18917;SDS011;9591;52.742;13.650;2022-11-30T20:29:53;80.23;;;25.00;;
18917;SDS011;9591;52.742;13.650;2022-11-30T20:32:40;88.40;;;23.10;;
18917;SDS011;9591;52.742;13.650;2022-11-30T20:35:29;77.63;;;22.63;;
18917;SDS011;9591;52.742;13.650;2022-11-30T20:38:16;83.03;;;22.70;;
18917;SDS011;9591;52.742;13.650;2022-11-30T20:41:04;85.90;;;24.90;;
18917;SDS011;9591;52.742;13.650;2022-11-30T20:43:55;82.63;;;24.00;;
18917;SDS011;9591;52.742;13.650;2022-11-30T20:46:42;96.87;;;26.43;;
18917;SDS011;9591;52.742;13.650;2022-11-30T20:49:29;74.03;;;21.80;;
18917;SDS011;9591;52.742;13.650;2022-11-30T20:52:18;100.43;;;25.17;;
18917;SDS011;9591;52.742;13.650;2022-11-30T20:55:05;84.93;;;25.43;;
18917;SDS011;9591;52.742;13.650;2022-11-30T20:57:53;103.80;;;28.60;;
18917;SDS011;9591;52.742;13.650;2022-11-30T21:00:40;97.93;;;24.23;;
18917;SDS011;9591;52.742;13.650;2022-11-30T21:03:27;103.93;;;25.63;;
18917;SDS011;9591;52.742;13.650;2022-11-30T21:06:14;119.43;;;29.50;;
18917;SDS011;9591;52.742;13.650;2022-11-30T21:09:02;102.87;;;27.17;;
18917;SDS011;9591;52.742;13.650;2022-11-30T21:11:48;106.57;;;28.93;;
18917;SDS011;9591;52.742;13.650;2022-11-30T21:14:37;106.60;;;27.63;;
18917;SDS011;9591;52.742;13.650;2022-11-30T21:17:24;110.90;;;31.13;;
18917;SDS011;9591;52.742;13.650;2022-11-30T21:20:19;87.83;;;26.57;;
18917;SDS011;9591;52.742;13.650;2022-11-30T21:23:06;97.07;;;28.03;;
18917;SDS011;9591;52.742;13.650;2022-11-30T21:25:53;92.20;;;26.27;;
18917;SDS011;9591;52.742;13.650;2022-11-30T21:28:40;83.23;;;26.70;;
18917;SDS011;9591;52.742;13.650;2022-11-30T21:31:36;76.03;;;22.33;;
18917;SDS011;9591;52.742;13.650;2022-11-30T21:34:23;81.10;;;22.60;;
18917;SDS011;9591;52.742;13.650;2022-11-30T21:37:10;79.37;;;23.80;;
18917;SDS011;9591;52.742;13.650;2022-11-30T21:39:57;78.90;;;22.50;;
18917;SDS011;9591;52.742;13.650;2022-11-30T21:42:44;83.90;;;22.77;;
18917;SDS011;9591;52.742;13.650;2022-11-30T21:45:30;74.70;;;22.57;;
18917;SDS011;9591;52.742;13.650;2022-11-30T21:48:19;88.50;;;22.93;;
18917;SDS011;9591;52.742;13.650;2022-11-30T21:51:06;92.67;;;23.40;;
18917;SDS011;9591;52.742;13.650;2022-11-30T21:53:55;84.17;;;22.40;;
18917;SDS011;9591;52.742;13.650;2022-11-30T21:56:43;74.53;;;22.57;;
18917;SDS011;9591;52.742;13.650;2022-11-30T21:59:30;69.67;;;20.00;;
18917;SDS011;9591;52.742;13.650;2022-11-30T22:02:18;72.10;;;20.33;;
18917;SDS011;9591;52.742;13.650;2022-11-30T22:05:07;72.07;;;20.40;;
18917;SDS011;9591;52.742;13.650;2022-11-30T22:07:54;79.37;;;21.93;;
18917;SDS011;9591;52.742;13.650;2022-11-30T22:10:41;71.70;;;21.70;;
18917;SDS011;9591;52.742;13.650;2022-11-30T22:13:27;75.77;;;20.97;;
18917;SDS011;9591;52.742;13.650;2022-11-30T22:16:15;76.00;;;19.77;;
18917;SDS011;9591;52.742;13.650;2022-11-30T22:19:02;72.20;;;19.93;;
18917;SDS011;9591;52.742;13.650;2022-11-30T22:21:51;66.63;;;21.13;;
18917;SDS011;9591;52.742;13.650;2022-11-30T22:24:38;78.17;;;22.83;;
18917;SDS011;9591;52.742;13.650;2022-11-30T22:27:25;66.23;;;20.23;;
18917;SDS011;9591;52.742;13.650;2022-11-30T22:30:12;67.63;;;19.87;;
18917;SDS011;9591;52.742;13.650;2022-11-30T22:32:59;67.40;;;20.23;;
18917;SDS011;9591;52.742;13.650;2022-11-30T22:35:46;64.83;;;20.90;;
18917;SDS011;9591;52.742;13.650;2022-11-30T22:38:34;73.67;;;21.17;;
18917;SDS011;9591;52.742;13.650;2022-11-30T22:41:20;74.03;;;21.57;;
18917;SDS011;9591;52.742;13.650;2022-11-30T22:44:08;83.07;;;23.23;;
18917;SDS011;9591;52.742;13.650;2022-11-30T22:46:57;70.23;;;21.00;;
18917;SDS011;9591;52.742;13.650;2022-11-30T22:49:44;74.07;;;19.63;;
18917;SDS011;9591;52.742;13.650;2022-11-30T22:52:31;77.70;;;22.17;;
18917;SDS011;9591;52.742;13.650;2022-11-30T22:55:39;77.10;;;21.13;;
18917;SDS011;9591;52.742;13.650;2022-11-30T22:58:32;60.33;;;20.50;;
18917;SDS011;9591;52.742;13.650;2022-11-30T23:01:20;74.23;;;20.83;;
18917;SDS011;9591;52.742;13.650;2022-11-30T23:04:09;74.67;;;21.90;;
18917;SDS011;9591;52.742;13.650;2022-11-30T23:06:58;82.33;;;20.23;;
18917;SDS011;9591;52.742;13.650;2022-11-30T23:09:45;72.40;;;19.63;;
18917;SDS011;9591;52.742;13.650;2022-11-30T23:12:33;68.87;;;19.90;;
18917;SDS011;9591;52.742;13.650;2022-11-30T23:15:39;86.33;;;21.13;;
18917;SDS011;9591;52.742;13.650;2022-11-30T23:18:27;64.93;;;19.53;;
18917;SDS011;9591;52.742;13.650;2022-11-30T23:21:16;71.87;;;20.13;;
18917;SDS011;9591;52.742;13.650;2022-11-30T23:24:04;81.20;;;21.13;;
18917;SDS011;9591;52.742;13.650;2022-11-30T23:26:53;76.90;;;22.33;;
18917;SDS011;9591;52.742;13.650;2022-11-30T23:29:41;78.07;;;23.47;;
18917;SDS011;9591;52.742;13.650;2022-11-30T23:32:28;75.40;;;21.87;;
18917;SDS011;9591;52.742;13.650;2022-11-30T23:35:20;71.13;;;22.33;;
18917;SDS011;9591;52.742;13.650;2022-11-30T23:38:08;87.87;;;23.67;;
18917;SDS011;9591;52.742;13.650;2022-11-30T23:41:00;72.70;;;21.63;;
18917;SDS011;9591;52.742;13.650;2022-11-30T23:43:48;79.73;;;22.47;;
18917;SDS011;9591;52.742;13.650;2022-11-30T23:46:36;69.50;;;18.67;;
18917;SDS011;9591;52.742;13.650;2022-11-30T23:49:23;75.77;;;23.20;;
18917;SDS011;9591;52.742;13.650;2022-11-30T23:52:10;78.63;;;21.77;;
18917;SDS011;9591;52.742;13.650;2022-11-30T23:54:56;77.63;;;22.00;;
18917;SDS011;9591;52.742;13.650;2022-11-30T23:57:43;79.00;;;21.77;;
